sensor_id;sensor_type;location;lat;lon;timestamp;temperature;humidity
74171;DHT22;62526;50.948;6.590;2023-06-22T00:01:19;23.70;88.80
74171;DHT22;62526;50.948;6.590;2023-06-22T00:03:45;23.70;89.00
74171;DHT22;62526;50.948;6.590;2023-06-22T00:06:12;23.70;89.00
74171;DHT22;62526;50.948;6.590;2023-06-22T00:08:39;23.70;89.50
74171;DHT22;62526;50.948;6.590;2023-06-22T00:11:07;23.70;89.10
74171;DHT22;62526;50.948;6.590;2023-06-22T00:13:33;23.70;89.10
74171;DHT22;62526;50.948;6.590;2023-06-22T00:16:01;23.70;89.40
74171;DHT22;62526;50.948;6.590;2023-06-22T00:18:27;23.70;89.40
74171;DHT22;62526;50.948;6.590;2023-06-22T00:20:54;23.70;89.60
74171;DHT22;62526;50.948;6.590;2023-06-22T00:23:24;23.70;90.10
74171;DHT22;62526;50.948;6.590;2023-06-22T00:25:52;23.70;89.20
74171;DHT22;62526;50.948;6.590;2023-06-22T00:28:19;23.60;88.50
74171;DHT22;62526;50.948;6.590;2023-06-22T00:30:48;23.60;89.10
74171;DHT22;62526;50.948;6.590;2023-06-22T00:33:17;23.60;89.30
74171;DHT22;62526;50.948;6.590;2023-06-22T00:35:44;23.60;89.20
74171;DHT22;62526;50.948;6.590;2023-06-22T00:38:11;23.60;90.00
74171;DHT22;62526;50.948;6.590;2023-06-22T00:40:38;23.60;90.30
74171;DHT22;62526;50.948;6.590;2023-06-22T00:43:05;23.50;90.20
74171;DHT22;62526;50.948;6.590;2023-06-22T00:45:32;23.50;90.20
74171;DHT22;62526;50.948;6.590;2023-06-22T00:47:59;23.50;90.40
74171;DHT22;62526;50.948;6.590;2023-06-22T00:50:26;23.40;90.50
74171;DHT22;62526;50.948;6.590;2023-06-22T00:52:56;23.40;90.80
74171;DHT22;62526;50.948;6.590;2023-06-22T00:55:23;23.40;90.70
74171;DHT22;62526;50.948;6.590;2023-06-22T00:57:50;23.30;90.90
74171;DHT22;62526;50.948;6.590;2023-06-22T01:00:17;23.30;91.20
74171;DHT22;62526;50.948;6.590;2023-06-22T01:02:44;23.30;91.40
74171;DHT22;62526;50.948;6.590;2023-06-22T01:05:14;23.30;91.50
74171;DHT22;62526;50.948;6.590;2023-06-22T01:07:58;23.30;91.60
74171;DHT22;62526;50.948;6.590;2023-06-22T01:10:27;23.20;91.70
74171;DHT22;62526;50.948;6.590;2023-06-22T01:12:52;23.20;92.20
74171;DHT22;62526;50.948;6.590;2023-06-22T01:15:37;23.20;92.00
74171;DHT22;62526;50.948;6.590;2023-06-22T01:18:01;23.10;92.50
74171;DHT22;62526;50.948;6.590;2023-06-22T01:20:29;23.10;92.50
74171;DHT22;62526;50.948;6.590;2023-06-22T01:23:07;23.10;92.60
74171;DHT22;62526;50.948;6.590;2023-06-22T01:25:33;23.00;92.90
74171;DHT22;62526;50.948;6.590;2023-06-22T01:28:04;23.00;93.10
74171;DHT22;62526;50.948;6.590;2023-06-22T01:30:30;22.90;93.40
74171;DHT22;62526;50.948;6.590;2023-06-22T01:32:59;22.90;93.70
74171;DHT22;62526;50.948;6.590;2023-06-22T01:35:26;22.90;93.70
74171;DHT22;62526;50.948;6.590;2023-06-22T01:37:54;22.90;93.90
74171;DHT22;62526;50.948;6.590;2023-06-22T01:40:23;22.90;94.00
74171;DHT22;62526;50.948;6.590;2023-06-22T01:42:52;22.90;94.10
74171;DHT22;62526;50.948;6.590;2023-06-22T01:45:20;22.90;94.10
74171;DHT22;62526;50.948;6.590;2023-06-22T01:47:48;22.80;94.00
74171;DHT22;62526;50.948;6.590;2023-06-22T01:50:15;22.80;94.10
74171;DHT22;62526;50.948;6.590;2023-06-22T01:52:41;22.80;93.90
74171;DHT22;62526;50.948;6.590;2023-06-22T01:55:08;22.80;93.70
74171;DHT22;62526;50.948;6.590;2023-06-22T01:57:37;22.80;94.00
74171;DHT22;62526;50.948;6.590;2023-06-22T02:00:05;22.80;93.80
74171;DHT22;62526;50.948;6.590;2023-06-22T02:02:36;22.80;93.80
74171;DHT22;62526;50.948;6.590;2023-06-22T02:05:02;22.80;94.00
74171;DHT22;62526;50.948;6.590;2023-06-22T02:07:29;22.80;93.90
74171;DHT22;62526;50.948;6.590;2023-06-22T02:09:54;22.80;93.90
74171;DHT22;62526;50.948;6.590;2023-06-22T02:12:22;22.70;93.90
74171;DHT22;62526;50.948;6.590;2023-06-22T02:14:49;22.70;94.00
74171;DHT22;62526;50.948;6.590;2023-06-22T02:17:17;22.70;94.10
74171;DHT22;62526;50.948;6.590;2023-06-22T02:19:42;22.60;94.30
74171;DHT22;62526;50.948;6.590;2023-06-22T02:22:08;22.60;94.50
74171;DHT22;62526;50.948;6.590;2023-06-22T02:24:35;22.50;94.80
74171;DHT22;62526;50.948;6.590;2023-06-22T02:27:07;22.50;94.90
74171;DHT22;62526;50.948;6.590;2023-06-22T02:29:34;22.50;95.10
74171;DHT22;62526;50.948;6.590;2023-06-22T02:32:02;22.50;95.20
74171;DHT22;62526;50.948;6.590;2023-06-22T02:34:28;22.50;95.20
74171;DHT22;62526;50.948;6.590;2023-06-22T02:36:55;22.50;95.20
74171;DHT22;62526;50.948;6.590;2023-06-22T02:39:23;22.50;95.20
74171;DHT22;62526;50.948;6.590;2023-06-22T02:41:51;22.60;95.30
74171;DHT22;62526;50.948;6.590;2023-06-22T02:44:17;22.50;95.50
74171;DHT22;62526;50.948;6.590;2023-06-22T02:46:44;22.60;95.50
74171;DHT22;62526;50.948;6.590;2023-06-22T02:49:12;22.50;95.40
74171;DHT22;62526;50.948;6.590;2023-06-22T02:51:41;22.50;95.60
74171;DHT22;62526;50.948;6.590;2023-06-22T02:54:07;22.50;95.70
74171;DHT22;62526;50.948;6.590;2023-06-22T02:56:35;22.50;95.90
74171;DHT22;62526;50.948;6.590;2023-06-22T02:59:05;22.50;96.20
74171;DHT22;62526;50.948;6.590;2023-06-22T03:01:34;22.50;96.10
74171;DHT22;62526;50.948;6.590;2023-06-22T03:04:01;22.50;96.10
74171;DHT22;62526;50.948;6.590;2023-06-22T03:06:29;22.50;96.40
74171;DHT22;62526;50.948;6.590;2023-06-22T03:09:01;22.50;96.50
74171;DHT22;62526;50.948;6.590;2023-06-22T03:11:27;22.50;96.60
74171;DHT22;62526;50.948;6.590;2023-06-22T03:13:54;22.50;96.70
74171;DHT22;62526;50.948;6.590;2023-06-22T03:16:21;22.50;96.90
74171;DHT22;62526;50.948;6.590;2023-06-22T03:18:48;22.50;97.10
74171;DHT22;62526;50.948;6.590;2023-06-22T03:21:14;22.40;97.10
74171;DHT22;62526;50.948;6.590;2023-06-22T03:23:41;22.40;97.20
74171;DHT22;62526;50.948;6.590;2023-06-22T03:26:09;22.50;97.40
74171;DHT22;62526;50.948;6.590;2023-06-22T03:28:37;22.40;97.50
74171;DHT22;62526;50.948;6.590;2023-06-22T03:31:04;22.40;97.70
74171;DHT22;62526;50.948;6.590;2023-06-22T03:36:14;22.40;97.90
74171;DHT22;62526;50.948;6.590;2023-06-22T03:38:42;22.40;98.10
74171;DHT22;62526;50.948;6.590;2023-06-22T03:41:08;22.50;98.30
74171;DHT22;62526;50.948;6.590;2023-06-22T03:43:36;22.50;98.40
74171;DHT22;62526;50.948;6.590;2023-06-22T03:46:03;22.50;98.40
74171;DHT22;62526;50.948;6.590;2023-06-22T03:48:30;22.50;98.60
74171;DHT22;62526;50.948;6.590;2023-06-22T03:50:58;22.50;98.70
74171;DHT22;62526;50.948;6.590;2023-06-22T03:53:27;22.50;99.00
74171;DHT22;62526;50.948;6.590;2023-06-22T03:55:56;22.50;99.10
74171;DHT22;62526;50.948;6.590;2023-06-22T03:58:22;22.50;99.30
74171;DHT22;62526;50.948;6.590;2023-06-22T04:00:50;22.50;99.40
74171;DHT22;62526;50.948;6.590;2023-06-22T04:03:18;22.50;99.70
74171;DHT22;62526;50.948;6.590;2023-06-22T04:05:45;22.50;99.90
74171;DHT22;62526;50.948;6.590;2023-06-22T04:08:13;22.40;99.90
74171;DHT22;62526;50.948;6.590;2023-06-22T04:10:39;22.40;99.90
74171;DHT22;62526;50.948;6.590;2023-06-22T04:13:07;22.40;99.90
74171;DHT22;62526;50.948;6.590;2023-06-22T04:15:34;22.30;99.90
74171;DHT22;62526;50.948;6.590;2023-06-22T04:18:03;22.30;99.90
74171;DHT22;62526;50.948;6.590;2023-06-22T04:20:31;22.30;99.90
74171;DHT22;62526;50.948;6.590;2023-06-22T04:22:58;22.30;99.90
74171;DHT22;62526;50.948;6.590;2023-06-22T04:25:27;22.30;99.90
74171;DHT22;62526;50.948;6.590;2023-06-22T04:27:55;22.30;99.90
74171;DHT22;62526;50.948;6.590;2023-06-22T04:30:21;22.30;99.90
74171;DHT22;62526;50.948;6.590;2023-06-22T04:32:48;22.30;99.90
74171;DHT22;62526;50.948;6.590;2023-06-22T04:35:17;22.30;99.90
74171;DHT22;62526;50.948;6.590;2023-06-22T04:37:45;22.30;99.90
74171;DHT22;62526;50.948;6.590;2023-06-22T04:40:13;22.30;99.90
74171;DHT22;62526;50.948;6.590;2023-06-22T04:42:40;22.30;99.90
74171;DHT22;62526;50.948;6.590;2023-06-22T04:45:07;22.40;99.90
74171;DHT22;62526;50.948;6.590;2023-06-22T04:47:34;22.40;99.90
74171;DHT22;62526;50.948;6.590;2023-06-22T04:50:02;22.40;99.90
74171;DHT22;62526;50.948;6.590;2023-06-22T04:52:32;22.50;99.90
74171;DHT22;62526;50.948;6.590;2023-06-22T04:54:59;22.60;99.90
74171;DHT22;62526;50.948;6.590;2023-06-22T04:57:26;22.60;99.90
74171;DHT22;62526;50.948;6.590;2023-06-22T04:59:52;22.60;99.90
74171;DHT22;62526;50.948;6.590;2023-06-22T05:02:20;22.60;99.90
74171;DHT22;62526;50.948;6.590;2023-06-22T05:04:46;22.60;99.90
74171;DHT22;62526;50.948;6.590;2023-06-22T05:07:13;22.50;99.90
74171;DHT22;62526;50.948;6.590;2023-06-22T05:09:40;22.60;99.90
74171;DHT22;62526;50.948;6.590;2023-06-22T05:12:07;22.60;99.90
74171;DHT22;62526;50.948;6.590;2023-06-22T05:14:35;22.60;99.90
74171;DHT22;62526;50.948;6.590;2023-06-22T05:17:03;22.60;99.90
74171;DHT22;62526;50.948;6.590;2023-06-22T05:19:30;22.60;99.90
74171;DHT22;62526;50.948;6.590;2023-06-22T05:21:57;22.60;99.90
74171;DHT22;62526;50.948;6.590;2023-06-22T05:24:23;22.70;99.90
74171;DHT22;62526;50.948;6.590;2023-06-22T05:26:51;22.70;99.90
74171;DHT22;62526;50.948;6.590;2023-06-22T05:29:21;22.70;99.90
74171;DHT22;62526;50.948;6.590;2023-06-22T05:31:51;22.70;99.90
74171;DHT22;62526;50.948;6.590;2023-06-22T05:34:20;22.70;99.90
74171;DHT22;62526;50.948;6.590;2023-06-22T05:36:48;22.70;99.90
74171;DHT22;62526;50.948;6.590;2023-06-22T05:39:15;22.70;99.90
74171;DHT22;62526;50.948;6.590;2023-06-22T05:41:44;22.70;99.90
74171;DHT22;62526;50.948;6.590;2023-06-22T05:44:17;22.70;99.90
74171;DHT22;62526;50.948;6.590;2023-06-22T05:46:45;22.70;99.90
74171;DHT22;62526;50.948;6.590;2023-06-22T05:49:15;22.70;99.90
74171;DHT22;62526;50.948;6.590;2023-06-22T05:51:43;22.70;99.90
74171;DHT22;62526;50.948;6.590;2023-06-22T05:54:12;22.80;99.90
74171;DHT22;62526;50.948;6.590;2023-06-22T05:56:44;22.80;99.90
74171;DHT22;62526;50.948;6.590;2023-06-22T05:59:16;22.80;99.90
74171;DHT22;62526;50.948;6.590;2023-06-22T06:01:46;22.90;99.90
74171;DHT22;62526;50.948;6.590;2023-06-22T06:04:20;22.90;99.90
74171;DHT22;62526;50.948;6.590;2023-06-22T06:06:49;23.00;99.90
74171;DHT22;62526;50.948;6.590;2023-06-22T06:09:17;23.00;99.90
74171;DHT22;62526;50.948;6.590;2023-06-22T06:11:44;23.10;99.90
74171;DHT22;62526;50.948;6.590;2023-06-22T06:14:10;23.10;99.90
74171;DHT22;62526;50.948;6.590;2023-06-22T06:16:38;23.20;99.90
74171;DHT22;62526;50.948;6.590;2023-06-22T06:19:04;23.30;99.90
74171;DHT22;62526;50.948;6.590;2023-06-22T06:21:31;23.30;99.90
74171;DHT22;62526;50.948;6.590;2023-06-22T06:23:58;23.40;99.90
74171;DHT22;62526;50.948;6.590;2023-06-22T06:26:24;23.40;99.90
74171;DHT22;62526;50.948;6.590;2023-06-22T06:28:54;23.50;99.90
74171;DHT22;62526;50.948;6.590;2023-06-22T06:31:20;23.60;99.90
74171;DHT22;62526;50.948;6.590;2023-06-22T06:33:47;23.60;99.90
74171;DHT22;62526;50.948;6.590;2023-06-22T06:36:17;23.70;99.90
74171;DHT22;62526;50.948;6.590;2023-06-22T06:38:44;23.80;99.90
74171;DHT22;62526;50.948;6.590;2023-06-22T06:41:14;23.90;99.90
74171;DHT22;62526;50.948;6.590;2023-06-22T06:43:41;24.00;99.90
74171;DHT22;62526;50.948;6.590;2023-06-22T06:46:08;24.00;99.90
74171;DHT22;62526;50.948;6.590;2023-06-22T06:48:35;24.00;99.90
74171;DHT22;62526;50.948;6.590;2023-06-22T06:51:02;24.10;99.90
74171;DHT22;62526;50.948;6.590;2023-06-22T06:53:29;24.20;99.90
74171;DHT22;62526;50.948;6.590;2023-06-22T06:55:56;24.30;99.90
74171;DHT22;62526;50.948;6.590;2023-06-22T06:58:23;24.50;99.90
74171;DHT22;62526;50.948;6.590;2023-06-22T07:00:51;24.50;99.90
74171;DHT22;62526;50.948;6.590;2023-06-22T07:03:19;24.60;99.90
74171;DHT22;62526;50.948;6.590;2023-06-22T07:05:46;24.80;99.90
74171;DHT22;62526;50.948;6.590;2023-06-22T07:08:13;24.80;99.90
74171;DHT22;62526;50.948;6.590;2023-06-22T07:10:41;24.90;99.90
74171;DHT22;62526;50.948;6.590;2023-06-22T07:13:09;25.00;99.90
74171;DHT22;62526;50.948;6.590;2023-06-22T07:15:36;25.00;99.90
74171;DHT22;62526;50.948;6.590;2023-06-22T07:18:03;24.90;99.90
74171;DHT22;62526;50.948;6.590;2023-06-22T07:20:30;24.80;99.90
74171;DHT22;62526;50.948;6.590;2023-06-22T07:22:57;24.80;99.90
74171;DHT22;62526;50.948;6.590;2023-06-22T07:25:24;24.80;99.90
74171;DHT22;62526;50.948;6.590;2023-06-22T07:28:02;25.00;99.90
74171;DHT22;62526;50.948;6.590;2023-06-22T07:30:25;25.00;99.90
74171;DHT22;62526;50.948;6.590;2023-06-22T07:32:53;25.00;99.90
74171;DHT22;62526;50.948;6.590;2023-06-22T07:35:20;25.10;99.90
74171;DHT22;62526;50.948;6.590;2023-06-22T07:37:47;25.10;99.90
74171;DHT22;62526;50.948;6.590;2023-06-22T07:40:14;25.20;99.90
74171;DHT22;62526;50.948;6.590;2023-06-22T07:42:41;25.40;99.90
74171;DHT22;62526;50.948;6.590;2023-06-22T07:45:08;25.60;99.90
74171;DHT22;62526;50.948;6.590;2023-06-22T07:47:36;25.70;99.90
74171;DHT22;62526;50.948;6.590;2023-06-22T07:50:03;25.80;99.90
74171;DHT22;62526;50.948;6.590;2023-06-22T07:52:30;25.80;99.90
74171;DHT22;62526;50.948;6.590;2023-06-22T07:54:57;26.00;99.90
74171;DHT22;62526;50.948;6.590;2023-06-22T07:57:25;26.00;99.90
74171;DHT22;62526;50.948;6.590;2023-06-22T07:59:55;26.10;99.90
74171;DHT22;62526;50.948;6.590;2023-06-22T08:02:23;26.30;99.90
74171;DHT22;62526;50.948;6.590;2023-06-22T08:04:50;26.40;99.90
74171;DHT22;62526;50.948;6.590;2023-06-22T08:07:17;26.40;99.90
74171;DHT22;62526;50.948;6.590;2023-06-22T08:09:45;26.50;99.90
74171;DHT22;62526;50.948;6.590;2023-06-22T08:12:11;26.60;99.90
74171;DHT22;62526;50.948;6.590;2023-06-22T08:14:38;26.80;99.90
74171;DHT22;62526;50.948;6.590;2023-06-22T08:17:05;26.80;99.90
74171;DHT22;62526;50.948;6.590;2023-06-22T08:19:32;26.90;99.90
74171;DHT22;62526;50.948;6.590;2023-06-22T08:21:58;27.00;99.90
74171;DHT22;62526;50.948;6.590;2023-06-22T08:24:26;27.10;99.90
74171;DHT22;62526;50.948;6.590;2023-06-22T08:26:52;27.20;99.90
74171;DHT22;62526;50.948;6.590;2023-06-22T08:29:19;27.20;99.90
74171;DHT22;62526;50.948;6.590;2023-06-22T08:31:45;27.30;99.90
74171;DHT22;62526;50.948;6.590;2023-06-22T08:34:12;27.30;99.90
74171;DHT22;62526;50.948;6.590;2023-06-22T08:36:39;27.40;99.90
74171;DHT22;62526;50.948;6.590;2023-06-22T08:39:07;27.50;99.90
74171;DHT22;62526;50.948;6.590;2023-06-22T08:41:33;27.70;99.90
74171;DHT22;62526;50.948;6.590;2023-06-22T08:44:00;27.80;99.90
74171;DHT22;62526;50.948;6.590;2023-06-22T08:46:27;27.90;99.90
74171;DHT22;62526;50.948;6.590;2023-06-22T08:48:53;28.00;99.90
74171;DHT22;62526;50.948;6.590;2023-06-22T08:51:20;28.00;99.90
74171;DHT22;62526;50.948;6.590;2023-06-22T08:53:47;28.10;99.90
74171;DHT22;62526;50.948;6.590;2023-06-22T08:56:13;28.00;99.90
74171;DHT22;62526;50.948;6.590;2023-06-22T08:58:41;28.10;99.90
74171;DHT22;62526;50.948;6.590;2023-06-22T09:01:08;28.10;99.90
74171;DHT22;62526;50.948;6.590;2023-06-22T09:03:35;28.10;99.90
74171;DHT22;62526;50.948;6.590;2023-06-22T09:06:02;28.20;99.90
74171;DHT22;62526;50.948;6.590;2023-06-22T09:08:28;28.20;99.90
74171;DHT22;62526;50.948;6.590;2023-06-22T09:10:55;28.30;99.90
74171;DHT22;62526;50.948;6.590;2023-06-22T09:13:22;28.40;99.90
74171;DHT22;62526;50.948;6.590;2023-06-22T09:15:48;28.50;99.90
74171;DHT22;62526;50.948;6.590;2023-06-22T09:18:15;28.60;99.90
74171;DHT22;62526;50.948;6.590;2023-06-22T09:20:41;28.70;99.90
74171;DHT22;62526;50.948;6.590;2023-06-22T09:23:09;28.80;99.90
74171;DHT22;62526;50.948;6.590;2023-06-22T09:25:36;29.10;99.10
74171;DHT22;62526;50.948;6.590;2023-06-22T09:28:03;29.00;99.00
74171;DHT22;62526;50.948;6.590;2023-06-22T09:30:30;29.10;99.00
74171;DHT22;62526;50.948;6.590;2023-06-22T09:32:56;29.20;98.40
74171;DHT22;62526;50.948;6.590;2023-06-22T09:38:09;29.40;96.90
74171;DHT22;62526;50.948;6.590;2023-06-22T09:40:36;29.70;96.60
74171;DHT22;62526;50.948;6.590;2023-06-22T09:43:05;29.90;95.80
74171;DHT22;62526;50.948;6.590;2023-06-22T09:45:32;30.10;96.20
74171;DHT22;62526;50.948;6.590;2023-06-22T09:47:59;30.20;96.40
74171;DHT22;62526;50.948;6.590;2023-06-22T09:50:26;30.20;96.30
74171;DHT22;62526;50.948;6.590;2023-06-22T09:52:54;30.20;95.80
74171;DHT22;62526;50.948;6.590;2023-06-22T09:55:22;30.10;95.50
74171;DHT22;62526;50.948;6.590;2023-06-22T09:57:48;29.80;95.60
74171;DHT22;62526;50.948;6.590;2023-06-22T10:00:16;29.60;95.80
74171;DHT22;62526;50.948;6.590;2023-06-22T10:02:43;29.40;96.30
74171;DHT22;62526;50.948;6.590;2023-06-22T10:05:11;29.00;96.90
74171;DHT22;62526;50.948;6.590;2023-06-22T10:07:39;28.60;97.40
74171;DHT22;62526;50.948;6.590;2023-06-22T10:10:07;28.40;97.70
74171;DHT22;62526;50.948;6.590;2023-06-22T10:12:35;28.20;97.90
74171;DHT22;62526;50.948;6.590;2023-06-22T10:15:02;28.00;98.60
74171;DHT22;62526;50.948;6.590;2023-06-22T10:17:30;27.80;99.30
74171;DHT22;62526;50.948;6.590;2023-06-22T10:19:56;27.70;99.90
74171;DHT22;62526;50.948;6.590;2023-06-22T10:22:23;27.50;99.90
74171;DHT22;62526;50.948;6.590;2023-06-22T10:24:51;27.40;99.90
74171;DHT22;62526;50.948;6.590;2023-06-22T10:27:17;27.20;99.90
74171;DHT22;62526;50.948;6.590;2023-06-22T10:29:44;27.10;99.90
74171;DHT22;62526;50.948;6.590;2023-06-22T10:32:10;26.90;99.90
74171;DHT22;62526;50.948;6.590;2023-06-22T10:34:47;26.70;99.90
74171;DHT22;62526;50.948;6.590;2023-06-22T10:37:13;26.50;99.90
74171;DHT22;62526;50.948;6.590;2023-06-22T10:39:41;26.20;99.90
74171;DHT22;62526;50.948;6.590;2023-06-22T10:42:08;26.00;99.90
74171;DHT22;62526;50.948;6.590;2023-06-22T10:44:35;25.90;99.90
74171;DHT22;62526;50.948;6.590;2023-06-22T10:47:02;25.70;99.90
74171;DHT22;62526;50.948;6.590;2023-06-22T10:49:29;25.60;99.90
74171;DHT22;62526;50.948;6.590;2023-06-22T10:51:56;25.50;99.90
74171;DHT22;62526;50.948;6.590;2023-06-22T10:54:22;25.30;99.90
74171;DHT22;62526;50.948;6.590;2023-06-22T10:56:49;25.30;99.90
74171;DHT22;62526;50.948;6.590;2023-06-22T10:59:16;25.20;99.90
74171;DHT22;62526;50.948;6.590;2023-06-22T11:01:42;25.10;99.90
74171;DHT22;62526;50.948;6.590;2023-06-22T11:04:09;25.00;99.90
74171;DHT22;62526;50.948;6.590;2023-06-22T11:06:36;24.90;99.90
74171;DHT22;62526;50.948;6.590;2023-06-22T11:09:03;24.80;99.90
74171;DHT22;62526;50.948;6.590;2023-06-22T11:11:30;24.80;99.90
74171;DHT22;62526;50.948;6.590;2023-06-22T11:13:57;24.70;99.90
74171;DHT22;62526;50.948;6.590;2023-06-22T11:16:23;24.60;99.90
74171;DHT22;62526;50.948;6.590;2023-06-22T11:18:51;24.60;99.90
74171;DHT22;62526;50.948;6.590;2023-06-22T11:21:19;24.60;99.90
74171;DHT22;62526;50.948;6.590;2023-06-22T11:23:46;24.50;99.90
74171;DHT22;62526;50.948;6.590;2023-06-22T11:26:14;24.50;99.90
74171;DHT22;62526;50.948;6.590;2023-06-22T11:28:40;24.60;99.90
74171;DHT22;62526;50.948;6.590;2023-06-22T11:31:08;24.70;99.90
74171;DHT22;62526;50.948;6.590;2023-06-22T11:33:36;24.80;99.90
74171;DHT22;62526;50.948;6.590;2023-06-22T11:36:03;25.00;99.90
74171;DHT22;62526;50.948;6.590;2023-06-22T11:38:30;25.40;99.90
74171;DHT22;62526;50.948;6.590;2023-06-22T11:40:58;25.70;99.90
74171;DHT22;62526;50.948;6.590;2023-06-22T11:43:26;26.10;99.90
74171;DHT22;62526;50.948;6.590;2023-06-22T11:45:53;26.60;99.90
74171;DHT22;62526;50.948;6.590;2023-06-22T11:48:21;27.20;99.90
74171;DHT22;62526;50.948;6.590;2023-06-22T11:50:50;27.50;99.90
74171;DHT22;62526;50.948;6.590;2023-06-22T11:53:19;27.70;99.90
74171;DHT22;62526;50.948;6.590;2023-06-22T11:55:50;27.60;99.90
74171;DHT22;62526;50.948;6.590;2023-06-22T11:58:22;27.40;99.90
74171;DHT22;62526;50.948;6.590;2023-06-22T12:00:51;27.30;99.90
74171;DHT22;62526;50.948;6.590;2023-06-22T12:03:18;27.30;99.90
74171;DHT22;62526;50.948;6.590;2023-06-22T12:05:49;27.30;99.90
74171;DHT22;62526;50.948;6.590;2023-06-22T12:08:16;27.10;99.90
74171;DHT22;62526;50.948;6.590;2023-06-22T12:10:43;27.10;99.90
74171;DHT22;62526;50.948;6.590;2023-06-22T12:13:11;27.00;99.90
74171;DHT22;62526;50.948;6.590;2023-06-22T12:15:38;27.00;99.90
74171;DHT22;62526;50.948;6.590;2023-06-22T12:18:05;27.10;99.90
74171;DHT22;62526;50.948;6.590;2023-06-22T12:20:31;27.30;99.90
74171;DHT22;62526;50.948;6.590;2023-06-22T12:22:58;27.50;99.90
74171;DHT22;62526;50.948;6.590;2023-06-22T12:25:29;27.50;99.90
74171;DHT22;62526;50.948;6.590;2023-06-22T12:27:56;27.70;99.90
74171;DHT22;62526;50.948;6.590;2023-06-22T12:30:25;27.60;99.90
74171;DHT22;62526;50.948;6.590;2023-06-22T12:32:52;27.50;99.90
74171;DHT22;62526;50.948;6.590;2023-06-22T12:35:19;27.40;99.90
74171;DHT22;62526;50.948;6.590;2023-06-22T12:37:45;27.30;99.90
74171;DHT22;62526;50.948;6.590;2023-06-22T12:40:13;27.00;99.90
74171;DHT22;62526;50.948;6.590;2023-06-22T12:42:40;26.90;99.90
74171;DHT22;62526;50.948;6.590;2023-06-22T12:45:08;26.90;99.90
74171;DHT22;62526;50.948;6.590;2023-06-22T12:47:35;26.90;99.90
74171;DHT22;62526;50.948;6.590;2023-06-22T12:50:02;26.80;99.90
74171;DHT22;62526;50.948;6.590;2023-06-22T12:52:30;26.80;99.90
74171;DHT22;62526;50.948;6.590;2023-06-22T12:54:57;26.80;99.90
74171;DHT22;62526;50.948;6.590;2023-06-22T12:57:25;27.10;99.90
74171;DHT22;62526;50.948;6.590;2023-06-22T12:59:51;27.40;99.90
74171;DHT22;62526;50.948;6.590;2023-06-22T13:02:19;27.70;99.90
74171;DHT22;62526;50.948;6.590;2023-06-22T13:04:45;27.80;99.90
74171;DHT22;62526;50.948;6.590;2023-06-22T13:07:12;27.60;99.90
74171;DHT22;62526;50.948;6.590;2023-06-22T13:09:39;27.50;99.90
74171;DHT22;62526;50.948;6.590;2023-06-22T13:12:06;27.30;99.90
74171;DHT22;62526;50.948;6.590;2023-06-22T13:14:35;27.10;99.90
74171;DHT22;62526;50.948;6.590;2023-06-22T13:17:02;26.90;99.90
74171;DHT22;62526;50.948;6.590;2023-06-22T13:19:29;26.90;99.90
74171;DHT22;62526;50.948;6.590;2023-06-22T13:21:55;26.90;99.90
74171;DHT22;62526;50.948;6.590;2023-06-22T13:24:22;26.90;99.90
74171;DHT22;62526;50.948;6.590;2023-06-22T13:26:49;26.90;99.90
74171;DHT22;62526;50.948;6.590;2023-06-22T13:29:16;27.00;99.90
74171;DHT22;62526;50.948;6.590;2023-06-22T13:31:43;27.00;99.90
74171;DHT22;62526;50.948;6.590;2023-06-22T13:36:57;26.90;99.90
74171;DHT22;62526;50.948;6.590;2023-06-22T13:39:25;26.90;99.90
74171;DHT22;62526;50.948;6.590;2023-06-22T13:41:53;26.90;99.90
74171;DHT22;62526;50.948;6.590;2023-06-22T13:44:23;27.10;99.90
74171;DHT22;62526;50.948;6.590;2023-06-22T13:46:49;27.50;99.90
74171;DHT22;62526;50.948;6.590;2023-06-22T13:49:16;28.00;99.90
74171;DHT22;62526;50.948;6.590;2023-06-22T13:51:43;28.70;99.90
74171;DHT22;62526;50.948;6.590;2023-06-22T13:54:10;29.90;99.90
74171;DHT22;62526;50.948;6.590;2023-06-22T13:56:36;31.00;99.90
74171;DHT22;62526;50.948;6.590;2023-06-22T13:59:04;32.00;99.90
74171;DHT22;62526;50.948;6.590;2023-06-22T14:01:30;32.10;99.90
74171;DHT22;62526;50.948;6.590;2023-06-22T14:03:57;31.80;99.90
74171;DHT22;62526;50.948;6.590;2023-06-22T14:06:24;30.90;99.90
74171;DHT22;62526;50.948;6.590;2023-06-22T14:08:52;30.20;99.90
74171;DHT22;62526;50.948;6.590;2023-06-22T14:11:19;29.30;99.90
74171;DHT22;62526;50.948;6.590;2023-06-22T14:13:45;28.50;99.90
74171;DHT22;62526;50.948;6.590;2023-06-22T14:16:13;27.40;99.90
74171;DHT22;62526;50.948;6.590;2023-06-22T14:18:39;27.40;99.90
74171;DHT22;62526;50.948;6.590;2023-06-22T14:21:07;27.00;99.90
74171;DHT22;62526;50.948;6.590;2023-06-22T14:23:34;26.80;99.90
74171;DHT22;62526;50.948;6.590;2023-06-22T14:26:03;26.80;99.90
74171;DHT22;62526;50.948;6.590;2023-06-22T14:28:29;26.90;99.90
74171;DHT22;62526;50.948;6.590;2023-06-22T14:30:56;26.90;99.90
74171;DHT22;62526;50.948;6.590;2023-06-22T14:33:24;26.90;99.90
74171;DHT22;62526;50.948;6.590;2023-06-22T14:35:51;26.80;99.90
74171;DHT22;62526;50.948;6.590;2023-06-22T14:38:18;26.50;99.90
74171;DHT22;62526;50.948;6.590;2023-06-22T14:40:45;26.40;99.90
74171;DHT22;62526;50.948;6.590;2023-06-22T14:43:12;26.30;99.90
74171;DHT22;62526;50.948;6.590;2023-06-22T14:45:40;26.30;99.90
74171;DHT22;62526;50.948;6.590;2023-06-22T14:48:06;26.20;99.90
74171;DHT22;62526;50.948;6.590;2023-06-22T14:50:33;26.20;99.90
74171;DHT22;62526;50.948;6.590;2023-06-22T14:53:00;26.00;99.90
74171;DHT22;62526;50.948;6.590;2023-06-22T14:55:27;25.90;99.90
74171;DHT22;62526;50.948;6.590;2023-06-22T14:58:05;25.70;99.90
74171;DHT22;62526;50.948;6.590;2023-06-22T15:00:39;25.60;99.90
74171;DHT22;62526;50.948;6.590;2023-06-22T15:03:10;25.60;99.90
74171;DHT22;62526;50.948;6.590;2023-06-22T15:05:49;25.50;99.90
74171;DHT22;62526;50.948;6.590;2023-06-22T15:11:11;25.20;99.90
74171;DHT22;62526;50.948;6.590;2023-06-22T15:13:43;25.10;99.90
74171;DHT22;62526;50.948;6.590;2023-06-22T15:16:13;25.00;99.90
74171;DHT22;62526;50.948;6.590;2023-06-22T15:18:42;24.80;99.90
74171;DHT22;62526;50.948;6.590;2023-06-22T15:21:12;24.70;99.90
74171;DHT22;62526;50.948;6.590;2023-06-22T15:23:51;24.80;99.90
74171;DHT22;62526;50.948;6.590;2023-06-22T15:26:36;24.80;99.90
74171;DHT22;62526;50.948;6.590;2023-06-22T15:29:06;24.60;99.90
74171;DHT22;62526;50.948;6.590;2023-06-22T15:31:32;24.40;99.90
74171;DHT22;62526;50.948;6.590;2023-06-22T15:34:00;24.30;99.90
74171;DHT22;62526;50.948;6.590;2023-06-22T15:36:26;24.20;99.90
74171;DHT22;62526;50.948;6.590;2023-06-22T15:38:53;24.10;99.90
74171;DHT22;62526;50.948;6.590;2023-06-22T15:41:20;24.10;99.90
74171;DHT22;62526;50.948;6.590;2023-06-22T15:43:47;23.90;99.90